createdAt,value
2022-09-21T00:01:47.683Z,82.76
2022-09-21T00:04:16.695Z,82.75
2022-09-21T00:06:46.129Z,82.29
2022-09-21T00:09:14.760Z,82.45
2022-09-21T00:11:43.346Z,81.11
2022-09-21T00:14:14.535Z,80.87
2022-09-21T00:16:43.919Z,80.50
2022-09-21T00:19:12.881Z,80.01
2022-09-21T00:21:42.353Z,80.83
2022-09-21T00:24:11.017Z,80.24
2022-09-21T00:26:39.632Z,81.22
2022-09-21T00:29:08.318Z,81.79
2022-09-21T00:31:37.295Z,81.56
2022-09-21T00:34:08.144Z,81.73
2022-09-21T00:36:36.792Z,80.60
2022-09-21T00:39:05.389Z,80.39
2022-09-21T00:41:34.930Z,80.59
2022-09-21T00:44:25.339Z,80.43
2022-09-21T00:46:57.506Z,81.12
2022-09-21T00:49:28.357Z,81.49
2022-09-21T00:51:59.836Z,82.62
2022-09-21T00:54:35.254Z,82.91
2022-09-21T00:57:04.213Z,81.79
2022-09-21T00:59:35.861Z,82.40
2022-09-21T01:02:05.796Z,82.00
2022-09-21T01:04:34.839Z,82.14
2022-09-21T01:07:08.711Z,82.11
2022-09-21T01:09:37.545Z,82.00
2022-09-21T01:12:36.904Z,82.29
2022-09-21T01:15:27.317Z,82.74
2022-09-21T01:18:18.977Z,82.82
2022-09-21T01:21:02.580Z,82.49
2022-09-21T01:24:02.101Z,82.82
2022-09-21T01:26:36.218Z,82.34
2022-09-21T01:29:16.343Z,82.25
2022-09-21T01:32:09.889Z,82.08
2022-09-21T01:34:56.275Z,81.93
2022-09-21T01:37:58.497Z,81.91
2022-09-21T01:40:50.539Z,81.72
2022-09-21T01:43:32.621Z,81.33
2022-09-21T01:46:04.676Z,81.30
2022-09-21T01:48:39.516Z,81.00
2022-09-21T01:51:12.216Z,80.90
2022-09-21T01:53:47.388Z,80.60
2022-09-21T01:56:26.023Z,80.73
2022-09-21T01:59:07.537Z,80.25
2022-09-21T02:01:49.744Z,80.89
2022-09-21T02:04:18.639Z,81.88
2022-09-21T02:06:49.688Z,83.50
2022-09-21T02:09:19.591Z,83.78
2022-09-21T02:11:50.169Z,83.45
2022-09-21T02:14:24.250Z,83.45
2022-09-21T02:17:11.835Z,82.93
2022-09-21T02:20:17.761Z,83.10
2022-09-21T02:23:06.461Z,82.84
2022-09-21T02:25:56.601Z,83.24
2022-09-21T02:29:01.724Z,83.10
2022-09-21T02:31:51.843Z,83.55
2022-09-21T02:34:40.558Z,82.68
2022-09-21T02:37:41.022Z,81.88
2022-09-21T02:40:41.823Z,81.70
2022-09-21T02:43:27.829Z,81.65
2022-09-21T02:46:10.890Z,81.58
2022-09-21T02:48:47.911Z,82.01
2022-09-21T02:51:48.072Z,81.94
2022-09-21T02:54:26.464Z,82.28
2022-09-21T02:56:57.187Z,82.06
2022-09-21T02:59:26.998Z,81.66
2022-09-21T03:01:56.271Z,81.23
2022-09-21T03:04:26.358Z,80.63
2022-09-21T03:06:55.106Z,80.20
2022-09-21T03:09:24.634Z,80.89
2022-09-21T03:11:53.270Z,80.61
2022-09-21T03:14:23.131Z,80.10
2022-09-21T03:16:51.844Z,79.41
2022-09-21T03:19:20.506Z,78.90
2022-09-21T03:21:49.105Z,79.07
2022-09-21T03:24:37.833Z,79.11
2022-09-21T03:27:07.075Z,79.00
2022-09-21T03:29:35.721Z,78.56
2022-09-21T03:32:04.516Z,78.29
2022-09-21T03:34:34.601Z,78.03
2022-09-21T03:37:09.139Z,78.40
2022-09-21T03:39:38.039Z,78.37
2022-09-21T03:42:06.888Z,78.29
2022-09-21T03:44:37.377Z,78.24
2022-09-21T03:47:06.912Z,78.22
2022-09-21T03:49:35.547Z,78.17
2022-09-21T03:52:04.590Z,78.21
2022-09-21T03:54:33.875Z,78.35
2022-09-21T03:57:02.806Z,78.39
2022-09-21T03:59:31.647Z,78.20
2022-09-21T04:02:00.352Z,78.48
2022-09-21T04:04:29.155Z,78.55
2022-09-21T04:06:59.805Z,78.47
2022-09-21T04:09:28.512Z,78.45
2022-09-21T04:11:57.263Z,78.21
2022-09-21T04:14:26.034Z,77.98
2022-09-21T04:16:54.673Z,77.64
2022-09-21T04:19:23.313Z,77.18
2022-09-21T04:21:52.533Z,77.06
2022-09-21T04:24:21.640Z,76.68
2022-09-21T04:26:53.628Z,76.89
2022-09-21T04:29:22.221Z,77.15
2022-09-21T04:31:51.260Z,77.21
2022-09-21T04:34:19.986Z,76.80
2022-09-21T04:36:48.447Z,76.05
2022-09-21T04:39:17.171Z,76.01
2022-09-21T04:41:46.090Z,75.28
2022-09-21T04:44:14.827Z,75.30
2022-09-21T04:46:43.490Z,74.81
2022-09-21T04:49:12.189Z,74.80
2022-09-21T04:51:40.788Z,75.37
2022-09-21T04:54:09.436Z,75.34
2022-09-21T04:56:37.997Z,74.87
2022-09-21T04:59:06.763Z,74.36
2022-09-21T05:01:35.736Z,73.99
2022-09-21T05:04:04.377Z,73.90
2022-09-21T05:06:34.616Z,73.79
2022-09-21T05:09:21.916Z,73.96
2022-09-21T05:11:51.488Z,73.99
2022-09-21T05:14:24.713Z,73.44
2022-09-21T05:16:53.199Z,73.28
2022-09-21T05:19:23.270Z,73.33
2022-09-21T05:21:51.775Z,73.01
2022-09-21T05:24:20.360Z,73.30
2022-09-21T05:26:49.471Z,73.52
2022-09-21T05:29:18.511Z,73.77
2022-09-21T05:32:03.405Z,73.54
2022-09-21T05:35:02.099Z,73.29
2022-09-21T05:38:18.205Z,72.83
2022-09-21T05:40:47.863Z,72.82
2022-09-21T05:43:18.062Z,72.87
2022-09-21T05:45:57.467Z,73.38
2022-09-21T05:48:42.223Z,73.35
2022-09-21T05:51:47.053Z,73.48
2022-09-21T05:54:17.074Z,73.19
2022-09-21T05:57:00.731Z,73.17
2022-09-21T06:00:00.267Z,73.19
2022-09-21T06:02:46.829Z,73.82
2022-09-21T06:05:16.403Z,73.77
2022-09-21T06:07:44.935Z,73.64
2022-09-21T06:10:16.297Z,73.42
2022-09-21T06:12:44.859Z,73.28
2022-09-21T06:15:17.137Z,73.81
2022-09-21T06:17:45.775Z,74.20
2022-09-21T06:20:14.423Z,73.81
2022-09-21T06:22:43.099Z,73.76
2022-09-21T06:25:11.550Z,73.55
2022-09-21T06:27:40.112Z,73.63
2022-09-21T06:30:09.290Z,73.99
2022-09-21T06:33:05.148Z,74.14
2022-09-21T06:35:37.159Z,74.20
2022-09-21T06:38:08.688Z,73.50
2022-09-21T06:40:37.593Z,73.69
2022-09-21T06:43:06.287Z,73.32
2022-09-21T06:45:34.891Z,73.39
2022-09-21T06:48:03.561Z,73.77
2022-09-21T06:50:33.628Z,73.67
2022-09-21T06:53:04.163Z,73.38
2022-09-21T06:55:33.741Z,73.24
2022-09-21T06:58:04.348Z,73.64
2022-09-21T07:00:34.929Z,73.89
2022-09-21T07:03:03.667Z,74.27
2022-09-21T07:05:34.588Z,74.48
2022-09-21T07:08:03.221Z,74.50
2022-09-21T07:10:32.525Z,74.35
2022-09-21T07:13:06.264Z,73.82
2022-09-21T07:15:35.137Z,73.93
2022-09-21T07:18:14.417Z,73.80
2022-09-21T07:20:43.653Z,73.91
2022-09-21T07:23:18.805Z,73.51
2022-09-21T07:25:50.734Z,73.15
2022-09-21T07:28:20.140Z,73.52
2022-09-21T07:30:50.346Z,74.10
2022-09-21T07:33:19.175Z,73.78
2022-09-21T07:35:53.341Z,73.28
2022-09-21T07:38:21.973Z,72.82
2022-09-21T07:40:51.159Z,72.98
2022-09-21T07:43:20.040Z,73.33
2022-09-21T07:45:58.589Z,73.66
2022-09-21T07:48:27.143Z,72.71
2022-09-21T07:50:57.819Z,71.99
2022-09-21T07:53:26.526Z,72.11
2022-09-21T07:56:09.084Z,72.18
2022-09-21T07:58:57.266Z,72.24
2022-09-21T08:01:27.904Z,72.54
2022-09-21T08:03:58.294Z,72.39
2022-09-21T08:06:30.789Z,71.80
2022-09-21T08:09:00.297Z,71.80
2022-09-21T08:11:31.752Z,71.79
2022-09-21T08:14:03.101Z,71.75
2022-09-21T08:16:32.536Z,72.11
2022-09-21T08:19:02.423Z,72.36
2022-09-21T08:21:31.347Z,72.08
2022-09-21T08:23:59.852Z,71.97
2022-09-21T08:26:28.413Z,71.43
2022-09-21T08:28:59.020Z,71.34
2022-09-21T08:31:27.806Z,71.03
2022-09-21T08:34:00.863Z,70.86
2022-09-21T08:36:29.379Z,71.01
2022-09-21T08:38:57.979Z,70.56
2022-09-21T08:42:01.673Z,70.05
2022-09-21T08:44:57.252Z,69.70
2022-09-21T08:47:43.890Z,69.61
2022-09-21T08:50:47.251Z,69.56
2022-09-21T08:53:23.669Z,69.55
2022-09-21T08:55:58.406Z,69.58
2022-09-21T08:58:31.273Z,69.56
2022-09-21T09:01:21.856Z,69.01
2022-09-21T09:04:27.257Z,69.12
2022-09-21T09:07:43.086Z,68.75
2022-09-21T09:10:20.541Z,68.31
2022-09-21T09:13:20.635Z,68.07
2022-09-21T09:16:16.389Z,67.28
2022-09-21T09:19:17.289Z,66.99
2022-09-21T09:21:46.629Z,66.67
2022-09-21T09:24:44.448Z,66.80
2022-09-21T09:27:32.994Z,65.73
2022-09-21T09:30:10.308Z,65.13
2022-09-21T09:32:45.650Z,64.33
2022-09-21T09:35:18.114Z,64.55
2022-09-21T09:37:49.038Z,64.65
2022-09-21T09:40:29.152Z,63.41
2022-09-21T09:43:21.003Z,63.25
2022-09-21T09:45:55.650Z,63.10
2022-09-21T09:49:16.024Z,63.00
2022-09-21T09:51:44.713Z,63.38
2022-09-21T09:54:27.635Z,63.42
2022-09-21T09:56:56.129Z,63.09
2022-09-21T09:59:43.215Z,62.32
2022-09-21T10:02:27.943Z,61.25
2022-09-21T10:05:06.470Z,60.99
2022-09-21T10:07:41.613Z,60.62
2022-09-21T10:10:32.281Z,60.33
2022-09-21T10:13:33.303Z,60.95
2022-09-21T10:16:12.291Z,61.18
2022-09-21T10:18:59.142Z,61.80
2022-09-21T10:21:39.593Z,62.31
2022-09-21T10:24:46.602Z,62.90
2022-09-21T10:27:22.192Z,63.87
2022-09-21T10:29:50.771Z,63.99
2022-09-21T10:32:26.963Z,64.54
2022-09-21T10:35:18.155Z,64.71
2022-09-21T10:37:53.965Z,65.34
2022-09-21T10:40:23.185Z,65.91
2022-09-21T10:42:56.350Z,66.40
2022-09-21T10:45:30.770Z,66.14
2022-09-21T10:48:06.351Z,66.15
2022-09-21T10:50:42.357Z,66.28
2022-09-21T10:53:10.846Z,66.89
2022-09-21T10:56:30.151Z,66.29
2022-09-21T10:59:23.371Z,65.36
2022-09-21T11:01:59.105Z,64.94
2022-09-21T11:04:40.030Z,63.60
2022-09-21T11:07:21.550Z,63.95
2022-09-21T11:10:07.224Z,63.73
2022-09-21T11:12:47.937Z,64.00
2022-09-21T11:15:46.279Z,64.16
2022-09-21T11:18:59.073Z,62.28
2022-09-21T11:22:02.408Z,60.83
2022-09-21T11:24:59.085Z,59.93
2022-09-21T11:27:44.715Z,60.27
2022-09-21T11:30:17.209Z,59.38
2022-09-21T11:33:39.419Z,59.46
2022-09-21T11:36:27.616Z,58.98
2022-09-21T11:39:13.181Z,62.98
2022-09-21T11:41:53.052Z,68.79
2022-09-21T11:44:50.055Z,71.96
2022-09-21T11:47:45.372Z,75.60
2022-09-21T11:50:44.854Z,76.54
2022-09-21T11:54:03.569Z,79.34
2022-09-21T11:56:47.306Z,78.58
2022-09-21T11:59:44.914Z,80.70
2022-09-21T12:03:04.654Z,80.59
2022-09-21T12:05:51.965Z,81.22
2022-09-21T12:08:49.420Z,80.92
2022-09-21T12:11:49.988Z,80.51
2022-09-21T12:14:52.604Z,81.03
2022-09-21T12:17:30.386Z,81.51
2022-09-21T12:20:07.912Z,81.70
2022-09-21T12:22:44.094Z,80.89
2022-09-21T12:25:14.448Z,80.19
2022-09-21T12:28:29.695Z,80.01
2022-09-21T12:31:29.280Z,79.68
2022-09-21T12:34:19.094Z,78.50
2022-09-21T12:37:20.344Z,77.17
2022-09-21T12:40:08.164Z,76.02
2022-09-21T12:43:08.449Z,74.88
2022-09-21T12:45:52.704Z,74.84
2022-09-21T12:48:33.231Z,72.85
2022-09-21T12:51:12.650Z,75.01
2022-09-21T12:53:50.925Z,76.70
2022-09-21T12:56:38.024Z,77.60
2022-09-21T12:59:38.070Z,79.09
2022-09-21T13:02:33.750Z,79.91
2022-09-21T13:05:20.759Z,79.79
2022-09-21T13:08:11.211Z,79.73
2022-09-21T13:10:58.133Z,79.84
2022-09-21T13:13:44.947Z,79.06
2022-09-21T13:16:38.620Z,78.59
2022-09-21T13:19:13.559Z,78.29
2022-09-21T13:21:44.517Z,77.99
2022-09-21T13:24:31.904Z,76.53
2022-09-21T13:27:05.467Z,74.03
2022-09-21T13:29:39.292Z,71.94
2022-09-21T13:32:14.346Z,71.14
2022-09-21T13:34:45.799Z,71.29
2022-09-21T13:37:21.106Z,70.26
2022-09-21T13:40:02.325Z,71.26
2022-09-21T13:42:37.407Z,70.36
2022-09-21T13:45:14.826Z,70.70
2022-09-21T13:47:47.625Z,70.54
2022-09-21T13:50:45.669Z,69.06
2022-09-21T13:53:42.636Z,67.46
2022-09-21T13:56:25.451Z,67.56
2022-09-21T13:58:58.417Z,68.32
2022-09-21T14:01:52.726Z,67.63
2022-09-21T14:04:29.447Z,68.58
2022-09-21T14:07:02.969Z,68.27
2022-09-21T14:09:54.540Z,70.12
2022-09-21T14:12:27.720Z,70.11
2022-09-21T14:15:18.911Z,70.22
2022-09-21T14:18:17.202Z,70.66
2022-09-21T14:21:11.715Z,71.32
2022-09-21T14:23:40.657Z,72.49
2022-09-21T14:26:36.622Z,72.63
2022-09-21T14:29:21.895Z,72.30
2022-09-21T14:31:55.192Z,72.59
2022-09-21T14:34:31.931Z,72.15
2022-09-21T14:37:06.681Z,72.25
2022-09-21T14:39:43.517Z,71.97
2022-09-21T14:42:20.318Z,71.93
2022-09-21T14:44:51.904Z,72.49
2022-09-21T14:47:57.624Z,72.11
2022-09-21T14:51:01.979Z,72.10
2022-09-21T14:54:09.069Z,71.77
2022-09-21T14:56:57.162Z,71.46
2022-09-21T14:59:35.910Z,71.81
2022-09-21T15:02:21.658Z,72.31
2022-09-21T15:05:09.892Z,71.39
2022-09-21T15:08:47.828Z,71.27
2022-09-21T15:11:37.132Z,73.16
2022-09-21T15:14:24.845Z,73.73
2022-09-21T15:16:53.814Z,74.05
2022-09-21T15:19:30.590Z,74.89
2022-09-21T15:22:21.029Z,75.29
2022-09-21T15:25:03.051Z,75.67
2022-09-21T15:27:33.722Z,76.04
2022-09-21T15:30:06.309Z,75.94
2022-09-21T15:32:45.196Z,76.54
2022-09-21T15:35:23.622Z,77.04
2022-09-21T15:37:54.067Z,77.10
2022-09-21T15:40:34.849Z,77.25
2022-09-21T15:43:06.734Z,77.92
2022-09-21T15:45:56.235Z,78.10
2022-09-21T15:48:34.259Z,78.65
2022-09-21T15:51:23.411Z,78.26
2022-09-21T15:54:27.367Z,77.87
2022-09-21T15:56:56.060Z,77.98
2022-09-21T15:59:24.875Z,78.41
2022-09-21T16:01:58.675Z,78.75
2022-09-21T16:04:28.758Z,81.06
2022-09-21T16:07:05.931Z,81.60
2022-09-21T16:09:46.314Z,80.98
2022-09-21T16:12:45.006Z,79.79
2022-09-21T16:15:30.387Z,79.34
2022-09-21T16:18:06.468Z,79.39
2022-09-21T16:20:39.864Z,79.76
2022-09-21T16:23:24.645Z,80.51
2022-09-21T16:26:01.831Z,80.38
2022-09-21T16:28:42.460Z,80.39
2022-09-21T16:31:32.010Z,81.49
2022-09-21T16:34:07.713Z,81.09
2022-09-21T16:36:39.722Z,81.77
2022-09-21T16:39:15.524Z,81.22
2022-09-21T16:42:01.386Z,81.66
2022-09-21T16:44:34.926Z,81.80
2022-09-21T16:47:04.518Z,83.18
2022-09-21T16:49:35.440Z,81.53
2022-09-21T16:52:04.409Z,82.13
2022-09-21T16:54:33.018Z,83.35
2022-09-21T16:57:03.904Z,84.25
2022-09-21T16:59:35.109Z,83.44
2022-09-21T17:02:06.292Z,82.41
2022-09-21T17:04:35.820Z,82.75
2022-09-21T17:07:05.460Z,83.20
2022-09-21T17:09:49.237Z,83.73
2022-09-21T17:12:24.132Z,83.45
2022-09-21T17:14:53.238Z,83.77
2022-09-21T17:17:26.210Z,83.47
2022-09-21T17:19:54.843Z,83.19
2022-09-21T17:22:25.748Z,82.52
2022-09-21T17:24:55.133Z,82.52
2022-09-21T17:27:26.910Z,82.61
2022-09-21T17:29:56.590Z,83.10
2022-09-21T17:32:25.827Z,83.18
2022-09-21T17:35:33.108Z,83.26
2022-09-21T17:38:51.848Z,82.65
2022-09-21T17:41:40.455Z,83.16
2022-09-21T17:44:36.411Z,83.59
2022-09-21T17:47:28.435Z,84.39
2022-09-21T17:50:20.666Z,84.47
2022-09-21T17:53:08.560Z,84.86
2022-09-21T17:55:40.867Z,84.82
2022-09-21T17:58:40.558Z,85.17
2022-09-21T18:01:34.216Z,85.10
2022-09-21T18:04:04.637Z,86.25
2022-09-21T18:06:34.458Z,85.14
2022-09-21T18:09:04.064Z,85.28
2022-09-21T18:12:10.962Z,85.30
2022-09-21T18:15:09.297Z,86.12
2022-09-21T18:17:59.596Z,85.78
2022-09-21T18:20:54.407Z,86.64
2022-09-21T18:23:39.989Z,86.37
2022-09-21T18:26:18.508Z,85.92
2022-09-21T18:28:58.248Z,85.38
2022-09-21T18:32:03.764Z,84.49
2022-09-21T18:35:20.994Z,84.48
2022-09-21T18:38:15.662Z,84.49
2022-09-21T18:41:23.977Z,84.91
2022-09-21T18:44:19.145Z,84.87
2022-09-21T18:47:41.535Z,85.31
2022-09-21T18:50:35.690Z,85.41
2022-09-21T18:53:45.131Z,86.39
2022-09-21T18:56:15.013Z,86.86
2022-09-21T18:58:44.138Z,86.75
2022-09-21T19:01:14.515Z,87.81
2022-09-21T19:03:44.131Z,88.00
2022-09-21T19:06:29.291Z,89.28
2022-09-21T19:09:29.303Z,89.29
2022-09-21T19:12:28.433Z,88.01
2022-09-21T19:16:00.740Z,87.22
2022-09-21T19:18:42.733Z,87.88
2022-09-21T19:21:49.546Z,88.58
2022-09-21T19:24:35.521Z,88.40
2022-09-21T19:27:16.657Z,88.05
2022-09-21T19:29:57.377Z,88.28
2022-09-21T19:32:37.043Z,88.42
2022-09-21T19:35:33.604Z,88.62
2022-09-21T19:38:04.188Z,88.79
2022-09-21T19:40:41.511Z,88.79
2022-09-21T19:43:33.906Z,88.59
2022-09-21T19:46:37.549Z,88.88
2022-09-21T19:49:20.210Z,88.86
2022-09-21T19:51:51.911Z,90.39
2022-09-21T19:54:43.150Z,89.62
2022-09-21T19:57:40.125Z,90.90
2022-09-21T20:00:16.792Z,90.82
2022-09-21T20:03:36.380Z,90.03
2022-09-21T20:06:23.067Z,91.46
2022-09-21T20:09:20.376Z,90.71
2022-09-21T20:12:12.753Z,91.27
2022-09-21T20:15:08.292Z,91.01
2022-09-21T20:17:44.622Z,90.64
2022-09-21T20:20:14.101Z,90.25
2022-09-21T20:22:42.981Z,90.63
2022-09-21T20:25:24.404Z,90.04
2022-09-21T20:27:59.408Z,90.19
2022-09-21T20:30:32.936Z,89.62
2022-09-21T20:33:12.233Z,90.48
2022-09-21T20:35:42.941Z,90.53
2022-09-21T20:38:11.953Z,90.70
2022-09-21T20:40:42.347Z,91.27
2022-09-21T20:43:12.132Z,92.15
2022-09-21T20:45:41.096Z,92.16
2022-09-21T20:48:13.529Z,91.64
2022-09-21T20:50:46.387Z,91.72
2022-09-21T20:53:15.058Z,90.78
2022-09-21T20:55:54.075Z,91.16
2022-09-21T20:58:24.727Z,91.22
2022-09-21T21:00:58.610Z,90.88
2022-09-21T21:03:27.616Z,91.09
2022-09-21T21:06:12.477Z,90.52
2022-09-21T21:08:41.110Z,90.60
2022-09-21T21:11:10.930Z,90.74
2022-09-21T21:13:39.667Z,90.18
2022-09-21T21:16:12.127Z,90.16
2022-09-21T21:18:42.227Z,90.67
2022-09-21T21:21:11.868Z,90.44
2022-09-21T21:23:58.806Z,90.58
2022-09-21T21:26:50.223Z,90.12
2022-09-21T21:29:15.978Z,89.75
2022-09-21T21:31:46.590Z,89.49
2022-09-21T21:34:16.495Z,89.34
2022-09-21T21:36:45.701Z,89.48
2022-09-21T21:39:14.346Z,89.64
2022-09-21T21:41:43.640Z,89.75
2022-09-21T21:44:12.355Z,89.66
2022-09-21T21:46:41.013Z,89.36
2022-09-21T21:49:09.721Z,89.29
2022-09-21T21:51:38.441Z,88.78
2022-09-21T21:54:07.466Z,88.92
2022-09-21T21:56:36.234Z,89.25
2022-09-21T21:59:06.142Z,89.20
2022-09-21T22:01:34.878Z,89.16
2022-09-21T22:04:03.591Z,88.98
2022-09-21T22:06:35.604Z,88.80
2022-09-21T22:09:09.453Z,88.74
2022-09-21T22:11:39.049Z,88.82
2022-09-21T22:14:08.461Z,89.20
2022-09-21T22:16:40.692Z,89.31
2022-09-21T22:19:09.618Z,89.40
2022-09-21T22:21:47.368Z,89.15
2022-09-21T22:24:19.915Z,89.03
2022-09-21T22:26:49.089Z,88.70
2022-09-21T22:29:17.689Z,88.87
2022-09-21T22:31:49.956Z,89.03
2022-09-21T22:34:19.158Z,89.12
2022-09-21T22:36:47.845Z,89.15
2022-09-21T22:39:16.451Z,89.24
2022-09-21T22:41:45.070Z,89.58
2022-09-21T22:44:13.647Z,89.79
2022-09-21T22:46:42.247Z,89.56
2022-09-21T22:49:10.984Z,89.34
2022-09-21T22:51:39.735Z,89.27
2022-09-21T22:54:08.424Z,89.18
2022-09-21T22:56:37.084Z,88.76
2022-09-21T22:59:06.261Z,88.72
2022-09-21T23:01:38.648Z,89.07
2022-09-21T23:04:11.300Z,89.14
2022-09-21T23:06:43.035Z,89.49
2022-09-21T23:09:17.244Z,89.36
2022-09-21T23:11:53.665Z,88.99
2022-09-21T23:14:23.563Z,88.55
2022-09-21T23:16:53.071Z,88.83
2022-09-21T23:19:21.580Z,88.95
2022-09-21T23:21:50.818Z,89.38
2022-09-21T23:24:20.538Z,89.40
2022-09-21T23:26:51.873Z,89.23
2022-09-21T23:29:20.706Z,89.18
2022-09-21T23:31:49.400Z,88.98
2022-09-21T23:34:18.109Z,88.98
2022-09-21T23:36:46.804Z,88.72
2022-09-21T23:39:16.284Z,88.64
2022-09-21T23:41:45.300Z,89.03
2022-09-21T23:44:14.011Z,88.99
2022-09-21T23:46:42.818Z,89.21
2022-09-21T23:49:11.522Z,88.98
2022-09-21T23:51:41.113Z,89.01
2022-09-21T23:54:09.795Z,88.71
2022-09-21T23:56:38.607Z,88.78
2022-09-21T23:59:07.840Z,88.89
